EST,Max TemperatureF,Mean TemperatureF,Min TemperatureF,Max Dew PointF,MeanDew PointF,Min DewpointF,Max Humidity, Mean Humidity, Min Humidity, Max Sea Level PressureIn, Mean Sea Level PressureIn, Min Sea Level PressureIn, Max VisibilityMiles, Mean VisibilityMiles, Min VisibilityMiles, Max Wind SpeedMPH, Mean Wind SpeedMPH, Max Gust SpeedMPH,PrecipitationIn, CloudCover, Events, WindDirDegrees
2012-12-1,50,40,30,37,34,28,100,85,58,30.43,30.37,30.31,10,6,2,6,2,,0.00,1,,21
2012-12-2,59,44,30,48,40,30,100,83,59,30.37,30.22,30.11,10,6,0,9,2,,0.00,5,Fog-Rain,216
2012-12-3,66,55,44,55,50,43,100,85,64,30.26,30.20,30.15,10,10,10,7,3,,0.00,6,,202
2012-12-4,71,60,50,54,51,46,100,75,43,30.22,30.14,30.00,10,10,7,12,5,,0.00,4,,211
2012-12-5,62,47,32,52,36,27,80,61,44,30.32,30.17,30.00,10,10,10,21,11,29,0.00,4,,305
2012-12-6,42,34,26,32,27,23,93,75,57,30.36,30.27,30.18,10,10,10,7,2,,0.00,1,,132
2012-12-7,50,42,33,41,37,30,100,91,71,30.17,30.06,29.96,10,9,2,6,1,,0.04,6,Rain,23
2012-12-8,60,48,35,52,43,36,100,92,68,30.03,29.93,29.86,10,6,2,6,0,,0.03,6,Rain,50
2012-12-9,48,46,44,48,46,45,100,100,100,30.18,30.08,29.93,4,2,1,8,2,,0.26,8,Rain,81
2012-12-10,59,50,42,55,51,37,100,97,76,29.93,29.70,29.57,10,7,0,22,3,31,0.00,5,Fog-Rain,221
2012-12-11,44,38,30,37,32,28,93,76,57,30.22,30.00,29.74,10,10,10,18,8,25,0.00,3,Rain,311
2012-12-12,37,32,28,30,29,27,100,81,65,30.43,30.36,30.22,10,10,10,9,3,,0.00,3,,327
2012-12-13,42,32,23,30,27,23,100,84,53,30.47,30.40,30.32,10,9,5,5,1,,0.00,1,,78
2012-12-14,53,38,23,30,27,21,100,73,38,30.32,30.26,30.20,10,10,7,8,2,,0.00,1,,227
2012-12-15,50,39,28,34,30,27,100,71,50,30.28,30.18,30.08,10,10,10,10,2,,0.00,2,,131
2012-12-16,44,42,41,43,39,34,100,88,66,30.08,29.93,29.83,10,9,7,8,4,,0.00,5,Rain,134
2012-12-17,48,42,35,48,43,36,100,99,93,29.84,29.74,29.53,5,3,0,12,1,,0.06,6,Fog-Rain,116
2012-12-18,53,43,33,46,39,32,100,83,62,29.81,29.65,29.52,10,8,2,22,8,28,0.01,4,Rain,258
2012-12-19,50,40,30,37,34,30,100,76,62,30.16,29.96,29.79,10,10,10,18,6,25,0.00,6,,291
2012-12-20,44,38,32,45,35,32,100,88,66,30.18,29.95,29.37,10,9,4,15,4,22,0.15,4,Rain,135
2012-12-21,44,38,33,45,29,23,100,72,60,29.57,29.43,29.34,10,10,4,30,14,44,0.14,7,Rain,272
2012-12-22,39,36,32,27,24,21,75,65,52,30.03,29.85,29.57,10,10,10,33,22,46,0.00,5,,293
2012-12-23,46,34,23,28,23,19,86,65,40,30.04,29.96,29.87,10,10,10,12,5,16,0.00,1,,237
2012-12-24,35,30,26,32,29,23,100,92,75,30.05,29.96,29.88,10,6,0,10,1,17,0.00,5,Fog-Snow,116
2012-12-25,41,36,30,37,33,30,100,98,76,30.22,30.09,29.90,10,4,0,5,0,,0.31,7,Fog,34
2012-12-26,33,30,28,34,31,28,100,98,87,30.22,29.86,29.51,10,4,0,8,4,,0.08,4,Rain-Snow,19
2012-12-27,35,34,32,32,29,27,100,84,75,30.03,29.78,29.49,10,10,10,29,13,40,0.25,6,,291
2012-12-28,37,34,30,30,28,27,93,80,65,30.13,30.06,30.00,10,10,10,18,8,25,0.29,3,,293
2012-12-29,41,36,32,34,31,28,100,87,70,30.00,29.75,29.57,10,8,0,25,6,36,0.24,8,Snow,242
2012-12-30,35,30,26,28,24,19,81,71,65,30.31,30.16,29.84,10,10,10,31,17,39,0.00,4,Snow,296
2012-12-31,39,30,21,27,22,19,93,69,52,30.30,30.15,29.98,10,10,10,10,4,,0.00,2,,227